createdAt,value
2022-08-05T00:10:43.145Z,100457.56
2022-08-05T00:30:47.430Z,100456.00
2022-08-05T00:50:55.629Z,100454.41
2022-08-05T01:11:22.181Z,100445.69
2022-08-05T01:31:44.633Z,100441.81
2022-08-05T01:51:51.847Z,100438.59
2022-08-05T02:12:07.155Z,100449.84
2022-08-05T02:32:19.855Z,100444.94
2022-08-05T02:52:30.487Z,100443.09
2022-08-05T03:12:37.873Z,100443.53
2022-08-05T03:32:41.476Z,100428.97
2022-08-05T03:55:34.363Z,100419.75
2022-08-05T04:13:18.328Z,100430.72
2022-08-05T04:33:54.893Z,100437.88
2022-08-05T04:53:45.026Z,100427.50
2022-08-05T05:13:49.028Z,100434.91
2022-08-05T05:33:59.860Z,100428.06
2022-08-05T05:54:05.905Z,100427.28
2022-08-05T06:14:15.126Z,100419.06
2022-08-05T06:34:21.097Z,100418.34
2022-08-05T06:54:25.789Z,100410.97
2022-08-05T07:14:47.850Z,100416.41
2022-08-05T07:34:57.974Z,100422.84
2022-08-05T07:55:02.146Z,100405.28
2022-08-05T08:16:33.681Z,100390.19
2022-08-05T08:35:52.853Z,100392.25
2022-08-05T08:56:05.960Z,100395.69
2022-08-05T09:16:16.773Z,100375.34
2022-08-05T09:36:21.005Z,100365.03
2022-08-05T09:56:35.167Z,100345.13
2022-08-05T10:16:43.093Z,100324.94
2022-08-05T10:36:57.011Z,100295.63
2022-08-05T10:57:00.885Z,100282.69
2022-08-05T11:17:57.014Z,100270.75
2022-08-05T11:38:29.636Z,100251.84
2022-08-05T11:58:38.658Z,100242.12
2022-08-05T12:18:42.599Z,100245.03
2022-08-05T12:38:52.288Z,100226.06
2022-08-05T12:59:13.834Z,100221.75
2022-08-05T13:19:17.798Z,100203.06
2022-08-05T13:40:13.726Z,100169.84
2022-08-05T13:59:57.330Z,100147.84
2022-08-05T14:20:07.493Z,100131.31
2022-08-05T14:40:14.141Z,100116.22
2022-08-05T15:00:21.518Z,100100.03
2022-08-05T15:20:31.776Z,100071.81
2022-08-05T15:41:03.539Z,100066.28
2022-08-05T16:01:16.994Z,100046.34
2022-08-05T16:21:58.478Z,100032.03
2022-08-05T16:42:14.626Z,100039.59
2022-08-05T17:02:09.314Z,100030.66
2022-08-05T17:22:24.490Z,100027.00
2022-08-05T17:42:32.239Z,100035.41
2022-08-05T18:02:36.494Z,100047.22
2022-08-05T18:22:53.892Z,100047.63
2022-08-05T18:42:58.760Z,100054.47
2022-08-05T19:03:04.251Z,100065.06
2022-08-05T19:23:08.269Z,100080.81
2022-08-05T19:44:04.719Z,100081.37
2022-08-05T20:03:41.239Z,100077.78
2022-08-05T20:23:51.291Z,100094.31
2022-08-05T20:43:58.648Z,100101.34
2022-08-05T21:04:07.295Z,100117.09
2022-08-05T21:24:15.679Z,100128.63
2022-08-05T21:44:19.146Z,100131.69
2022-08-05T22:04:30.398Z,100135.50
2022-08-05T22:24:53.578Z,100146.34
2022-08-05T22:44:59.284Z,100147.59
2022-08-05T23:05:05.030Z,100144.56
2022-08-05T23:25:09.023Z,100161.75
2022-08-05T23:45:15.724Z,100148.38
